createdAt,value
2022-07-29T00:02:06.079Z,2.10
2022-07-29T00:04:34.803Z,1.65
2022-07-29T00:07:01.234Z,1.30
2022-07-29T00:09:27.632Z,1.23
2022-07-29T00:11:54.785Z,1.40
2022-07-29T00:14:21.166Z,1.50
2022-07-29T00:16:47.541Z,1.30
2022-07-29T00:19:13.959Z,1.40
2022-07-29T00:21:40.307Z,1.50
2022-07-29T00:24:06.755Z,1.30
2022-07-29T00:29:31.913Z,1.38
2022-07-29T00:31:46.982Z,1.30
2022-07-29T00:36:58.364Z,1.20
2022-07-29T00:39:24.842Z,1.55
2022-07-29T00:41:53.850Z,1.30
2022-07-29T00:44:20.185Z,1.40
2022-07-29T00:46:46.600Z,1.20
2022-07-29T00:51:39.950Z,1.48
2022-07-29T00:54:06.388Z,2.58
2022-07-29T01:01:25.873Z,1.70
2022-07-29T01:03:52.306Z,1.60
2022-07-29T01:06:19.219Z,1.98
2022-07-29T01:08:46.497Z,2.08
2022-07-29T01:11:13.123Z,1.52
2022-07-29T01:13:39.583Z,1.73
2022-07-29T01:21:15.739Z,1.50
2022-07-29T01:23:51.757Z,1.50
2022-07-29T01:26:43.511Z,1.60
2022-07-29T01:29:35.853Z,1.33
2022-07-29T01:32:18.129Z,1.50
2022-07-29T01:35:11.398Z,1.60
2022-07-29T01:37:43.836Z,1.50
2022-07-29T01:40:30.429Z,1.70
2022-07-29T01:42:57.948Z,1.50
2022-07-29T01:45:27.366Z,1.70
2022-07-29T01:48:11.216Z,1.58
2022-07-29T01:50:41.086Z,1.60
2022-07-29T01:53:08.996Z,1.52
2022-07-29T01:55:37.399Z,1.92
2022-07-29T01:58:05.401Z,1.77
2022-07-29T02:00:32.831Z,1.83
2022-07-29T02:03:00.119Z,1.70
2022-07-29T02:05:28.023Z,1.83
2022-07-29T02:07:55.802Z,1.50
2022-07-29T02:10:25.844Z,1.50
2022-07-29T02:12:53.435Z,2.00
2022-07-29T02:15:19.903Z,1.60
2022-07-29T02:20:13.123Z,1.70
2022-07-29T02:22:40.485Z,2.13
2022-07-29T02:25:08.394Z,1.80
2022-07-29T02:27:40.841Z,1.60
2022-07-29T02:30:09.383Z,1.70
2022-07-29T02:32:36.350Z,1.90
2022-07-29T02:35:03.367Z,2.15
2022-07-29T02:37:30.477Z,2.00
2022-07-29T02:39:58.273Z,1.80
2022-07-29T02:42:24.943Z,1.85
2022-07-29T02:44:51.393Z,1.90
2022-07-29T02:49:53.771Z,1.95
2022-07-29T02:52:27.343Z,1.83
2022-07-29T02:54:59.186Z,1.70
2022-07-29T02:57:28.239Z,2.00
2022-07-29T02:59:58.314Z,1.77
2022-07-29T03:02:26.472Z,1.92
2022-07-29T03:04:54.918Z,1.90
2022-07-29T03:07:21.874Z,1.70
2022-07-29T03:09:48.307Z,2.00
2022-07-29T03:12:15.778Z,2.00
2022-07-29T03:14:43.070Z,1.80
2022-07-29T03:17:10.952Z,2.20
2022-07-29T03:19:37.256Z,2.25
2022-07-29T03:22:04.439Z,1.98
2022-07-29T03:24:37.103Z,1.83
2022-07-29T03:27:04.230Z,2.08
2022-07-29T03:29:33.813Z,1.63
2022-07-29T03:32:01.090Z,1.90
2022-07-29T03:34:29.899Z,2.13
2022-07-29T03:36:56.212Z,1.85
2022-07-29T03:39:23.912Z,2.33
2022-07-29T03:41:52.940Z,1.60
2022-07-29T03:44:20.783Z,2.10
2022-07-29T03:46:49.085Z,2.03
2022-07-29T03:49:16.782Z,1.92
2022-07-29T03:51:43.393Z,1.65
2022-07-29T03:57:02.152Z,1.80
2022-07-29T03:59:28.537Z,1.60
2022-07-29T04:01:56.429Z,1.90
2022-07-29T04:04:23.025Z,2.13
2022-07-29T04:09:15.774Z,2.03
2022-07-29T04:12:01.510Z,1.52
2022-07-29T04:14:28.890Z,1.70
2022-07-29T04:16:55.235Z,2.10
2022-07-29T04:19:21.612Z,1.90
2022-07-29T04:21:48.016Z,1.98
2022-07-29T04:24:15.067Z,1.75
2022-07-29T04:26:41.697Z,1.88
2022-07-29T04:29:09.299Z,1.75
2022-07-29T04:31:35.824Z,1.70
2022-07-29T04:34:02.316Z,1.95
2022-07-29T04:36:29.931Z,2.00
2022-07-29T04:38:56.632Z,2.00
2022-07-29T04:41:22.944Z,1.92
2022-07-29T04:43:49.969Z,1.88
2022-07-29T04:46:16.477Z,1.60
2022-07-29T04:51:09.192Z,1.90
2022-07-29T04:53:35.527Z,1.83
2022-07-29T04:56:01.868Z,1.73
2022-07-29T04:58:28.375Z,1.90
2022-07-29T05:00:54.754Z,1.92
2022-07-29T05:03:21.112Z,2.15
2022-07-29T05:05:47.773Z,1.90
2022-07-29T05:08:14.126Z,2.10
2022-07-29T05:10:40.567Z,2.03
2022-07-29T05:13:07.709Z,2.10
2022-07-29T05:15:34.762Z,2.15
2022-07-29T05:18:01.425Z,1.90
2022-07-29T05:20:29.250Z,2.03
2022-07-29T05:22:59.428Z,3.10
2022-07-29T05:25:42.922Z,1.80
2022-07-29T05:28:11.730Z,1.60
2022-07-29T05:30:38.155Z,1.80
2022-07-29T05:35:31.068Z,1.75
2022-07-29T05:37:57.402Z,1.63
2022-07-29T05:40:23.713Z,2.00
2022-07-29T05:42:50.131Z,2.13
2022-07-29T05:45:16.476Z,1.80
2022-07-29T05:47:42.850Z,2.65
2022-07-29T05:50:09.661Z,1.92
2022-07-29T05:52:35.996Z,1.88
2022-07-29T05:55:05.193Z,1.88
2022-07-29T05:57:31.935Z,2.10
2022-07-29T05:59:58.685Z,2.05
2022-07-29T06:02:25.179Z,2.08
2022-07-29T06:07:17.820Z,2.05
2022-07-29T06:09:44.515Z,1.90
2022-07-29T06:12:10.878Z,2.05
2022-07-29T06:14:38.788Z,2.13
2022-07-29T06:17:06.210Z,1.88
2022-07-29T06:19:34.750Z,2.22
2022-07-29T06:22:01.087Z,2.03
2022-07-29T06:24:28.039Z,2.17
2022-07-29T06:26:54.391Z,2.65
2022-07-29T06:29:20.782Z,2.08
2022-07-29T06:31:49.432Z,2.53
2022-07-29T06:34:16.626Z,2.15
2022-07-29T06:36:44.192Z,2.00
2022-07-29T06:41:38.090Z,2.30
2022-07-29T06:44:09.803Z,2.25
2022-07-29T06:46:36.265Z,2.38
2022-07-29T06:49:03.288Z,2.35
2022-07-29T06:51:29.840Z,2.30
2022-07-29T06:56:26.500Z,2.10
2022-07-29T07:01:19.243Z,2.50
2022-07-29T07:06:14.959Z,2.47
2022-07-29T07:08:41.594Z,2.78
2022-07-29T07:11:08.192Z,2.55
2022-07-29T07:13:36.812Z,2.65
2022-07-29T07:16:03.503Z,2.97
2022-07-29T07:18:29.870Z,2.53
2022-07-29T07:23:22.487Z,2.60
2022-07-29T07:28:15.214Z,2.60
2022-07-29T07:30:41.559Z,2.20
2022-07-29T07:35:34.278Z,2.30
2022-07-29T07:40:27.085Z,2.60
2022-07-29T07:42:53.404Z,2.47
2022-07-29T07:47:46.438Z,2.60
2022-07-29T07:52:49.660Z,2.50
2022-07-29T07:55:16.517Z,2.10
2022-07-29T07:57:42.879Z,2.22
2022-07-29T08:00:09.485Z,2.40
2022-07-29T08:02:38.880Z,2.42
2022-07-29T08:05:05.599Z,2.70
2022-07-29T08:07:39.133Z,2.75
2022-07-29T08:10:05.695Z,2.45
2022-07-29T08:12:32.082Z,2.33
2022-07-29T08:14:58.461Z,2.47
2022-07-29T08:17:24.883Z,1.95
2022-07-29T08:19:51.299Z,2.30
2022-07-29T08:22:17.708Z,2.70
2022-07-29T08:24:44.080Z,2.60
2022-07-29T08:27:40.747Z,2.20
2022-07-29T08:30:00.615Z,2.30
2022-07-29T08:32:51.243Z,2.00
2022-07-29T08:35:13.440Z,2.30
2022-07-29T08:37:39.832Z,2.20
2022-07-29T08:40:07.113Z,2.53
2022-07-29T08:42:33.480Z,2.20
2022-07-29T08:44:59.875Z,2.50
2022-07-29T08:47:27.341Z,2.30
2022-07-29T08:49:53.712Z,2.42
2022-07-29T08:52:20.579Z,2.30
2022-07-29T08:54:47.006Z,2.50
2022-07-29T08:57:17.316Z,2.22
2022-07-29T08:59:45.930Z,2.10
2022-07-29T09:02:18.479Z,2.10
2022-07-29T09:04:44.923Z,2.33
2022-07-29T09:07:11.420Z,2.20
2022-07-29T09:09:40.419Z,2.25
2022-07-29T09:12:09.067Z,2.20
2022-07-29T09:14:35.433Z,2.33
2022-07-29T09:17:02.104Z,2.00
2022-07-29T09:19:28.787Z,2.00
2022-07-29T09:21:58.511Z,1.95
2022-07-29T09:24:36.588Z,2.10
2022-07-29T09:27:02.951Z,2.10
2022-07-29T09:29:32.224Z,2.03
2022-07-29T09:32:06.828Z,1.75
2022-07-29T09:34:33.298Z,1.70
2022-07-29T09:36:59.657Z,1.60
2022-07-29T09:39:28.812Z,2.15
2022-07-29T09:41:56.278Z,2.38
2022-07-29T09:44:24.558Z,1.73
2022-07-29T09:46:59.214Z,1.80
2022-07-29T09:49:26.270Z,1.70
2022-07-29T09:52:04.263Z,1.80
2022-07-29T09:54:35.318Z,2.05
2022-07-29T09:57:01.697Z,1.85
2022-07-29T09:59:29.135Z,1.83
2022-07-29T10:01:55.929Z,1.98
2022-07-29T10:04:22.497Z,1.70
2022-07-29T10:07:03.926Z,1.85
2022-07-29T10:09:31.378Z,1.80
2022-07-29T10:12:04.802Z,1.67
2022-07-29T10:14:31.738Z,1.85
2022-07-29T10:16:58.132Z,1.90
2022-07-29T10:19:25.256Z,1.67
2022-07-29T10:21:55.064Z,1.67
2022-07-29T10:24:25.710Z,1.70
2022-07-29T10:26:54.634Z,1.73
2022-07-29T10:29:21.491Z,1.67
2022-07-29T10:31:53.122Z,1.80
2022-07-29T10:34:38.427Z,1.85
2022-07-29T10:37:19.360Z,1.65
2022-07-29T10:39:49.663Z,1.60
2022-07-29T10:42:29.727Z,2.25
2022-07-29T10:45:01.485Z,2.10
2022-07-29T10:47:28.066Z,1.88
2022-07-29T10:50:01.774Z,2.10
2022-07-29T10:52:47.146Z,1.92
2022-07-29T10:55:31.263Z,1.77
2022-07-29T10:58:18.986Z,2.45
2022-07-29T11:00:46.578Z,2.20
2022-07-29T11:03:32.195Z,2.10
2022-07-29T11:06:00.179Z,2.50
2022-07-29T11:08:27.890Z,2.13
2022-07-29T11:11:15.856Z,2.20
2022-07-29T11:13:51.448Z,2.03
2022-07-29T11:16:20.290Z,2.40
2022-07-29T11:19:07.667Z,2.08
2022-07-29T11:21:54.203Z,2.53
2022-07-29T11:24:29.523Z,2.00
2022-07-29T11:27:13.188Z,2.75
2022-07-29T11:29:41.583Z,2.30
2022-07-29T11:32:10.871Z,2.33
2022-07-29T11:34:44.728Z,2.40
2022-07-29T11:37:14.029Z,2.97
2022-07-29T11:39:40.353Z,2.30
2022-07-29T11:42:28.151Z,2.72
2022-07-29T11:45:42.624Z,2.22
2022-07-29T11:48:28.934Z,2.22
2022-07-29T11:50:52.269Z,2.50
2022-07-29T11:53:18.703Z,2.60
2022-07-29T11:58:31.559Z,2.58
2022-07-29T12:00:58.404Z,2.75
2022-07-29T12:03:34.937Z,3.10
2022-07-29T12:06:02.332Z,2.30
2022-07-29T12:07:02.363Z,2.25
2022-07-29T12:08:28.760Z,2.20
2022-07-29T12:10:55.123Z,3.40
2022-07-29T12:13:22.201Z,3.35
2022-07-29T12:15:55.546Z,2.30
2022-07-29T12:18:24.099Z,2.58
2022-07-29T12:20:57.535Z,2.50
2022-07-29T12:23:23.964Z,2.83
2022-07-29T12:25:55.792Z,2.47
2022-07-29T12:28:26.723Z,2.20
2022-07-29T12:30:54.066Z,2.22
2022-07-29T12:33:24.776Z,2.63
2022-07-29T12:36:14.174Z,2.40
2022-07-29T12:38:41.598Z,2.45
2022-07-29T12:41:08.098Z,2.65
2022-07-29T12:43:34.434Z,2.20
2022-07-29T12:46:12.868Z,2.20
2022-07-29T12:48:40.563Z,2.08
2022-07-29T12:51:09.453Z,2.47
2022-07-29T12:53:36.245Z,2.58
2022-07-29T12:56:15.555Z,2.20
2022-07-29T12:58:51.429Z,2.80
2022-07-29T13:01:20.240Z,2.40
2022-07-29T13:03:57.561Z,2.40
2022-07-29T13:06:36.458Z,3.03
2022-07-29T13:09:09.512Z,2.40
2022-07-29T13:11:38.428Z,2.20
2022-07-29T13:14:06.599Z,2.58
2022-07-29T13:16:33.945Z,2.45
2022-07-29T13:19:04.498Z,2.10
2022-07-29T13:21:31.122Z,2.90
2022-07-29T13:23:57.455Z,2.33
2022-07-29T13:26:23.799Z,2.33
2022-07-29T13:28:50.638Z,2.42
2022-07-29T13:31:17.058Z,2.20
2022-07-29T13:33:43.464Z,2.10
2022-07-29T13:36:09.794Z,2.35
2022-07-29T13:38:36.157Z,2.47
2022-07-29T13:41:02.608Z,2.90
2022-07-29T13:43:29.751Z,2.50
2022-07-29T13:45:56.319Z,2.28
2022-07-29T13:48:22.704Z,2.30
2022-07-29T13:50:49.262Z,2.22
2022-07-29T13:53:17.688Z,2.22
2022-07-29T13:55:44.949Z,2.25
2022-07-29T13:58:11.379Z,2.20
2022-07-29T14:00:37.703Z,2.50
2022-07-29T14:03:04.169Z,2.40
2022-07-29T14:05:30.548Z,2.35
2022-07-29T14:07:56.886Z,2.30
2022-07-29T14:10:23.301Z,2.45
2022-07-29T14:12:49.628Z,2.40
2022-07-29T14:15:15.943Z,2.60
2022-07-29T14:17:44.706Z,2.45
2022-07-29T14:20:11.045Z,2.58
2022-07-29T14:22:42.418Z,2.70
2022-07-29T14:25:15.271Z,2.60
2022-07-29T14:27:42.339Z,2.40
2022-07-29T14:30:09.311Z,3.10
2022-07-29T14:32:35.665Z,2.55
2022-07-29T14:35:02.050Z,2.47
2022-07-29T14:37:28.502Z,2.63
2022-07-29T14:40:07.057Z,2.42
2022-07-29T14:42:33.430Z,2.53
2022-07-29T14:44:59.801Z,3.10
2022-07-29T14:47:26.221Z,2.47
2022-07-29T14:49:55.530Z,2.75
2022-07-29T14:52:21.896Z,2.67
2022-07-29T14:54:48.280Z,2.25
2022-07-29T14:57:14.647Z,2.42
2022-07-29T14:59:40.969Z,2.75
2022-07-29T15:02:07.403Z,3.13
2022-07-29T15:04:33.779Z,2.40
2022-07-29T15:07:00.103Z,2.17
2022-07-29T15:09:28.810Z,2.10
2022-07-29T15:11:55.389Z,2.08
2022-07-29T15:14:21.837Z,2.10
2022-07-29T15:16:52.739Z,2.10
2022-07-29T15:19:19.582Z,2.10
2022-07-29T15:21:48.016Z,2.40
2022-07-29T15:24:25.886Z,2.00
2022-07-29T15:26:52.233Z,1.90
2022-07-29T15:29:19.633Z,2.70
2022-07-29T15:31:46.030Z,2.00
2022-07-29T15:34:12.465Z,2.08
2022-07-29T15:36:54.432Z,1.95
2022-07-29T15:39:21.703Z,1.90
2022-07-29T15:41:48.102Z,1.90
2022-07-29T15:44:14.439Z,1.80
2022-07-29T15:47:00.249Z,2.00
2022-07-29T15:49:48.404Z,4.50
2022-07-29T15:52:25.760Z,2.35
2022-07-29T15:54:53.212Z,2.42
2022-07-29T15:57:19.555Z,2.63
2022-07-29T15:59:45.912Z,2.85
2022-07-29T16:02:12.258Z,2.22
2022-07-29T16:04:38.772Z,4.55
2022-07-29T16:07:05.114Z,2.55
2022-07-29T16:09:31.450Z,2.28
2022-07-29T16:11:57.864Z,2.78
2022-07-29T16:14:24.476Z,2.08
2022-07-29T16:16:58.003Z,1.70
2022-07-29T16:19:24.742Z,1.80
2022-07-29T16:21:51.108Z,1.73
2022-07-29T16:24:18.386Z,2.17
2022-07-29T16:26:44.735Z,1.88
2022-07-29T16:29:11.066Z,2.20
2022-07-29T16:31:37.461Z,4.05
2022-07-29T16:34:03.906Z,2.67
2022-07-29T16:36:30.271Z,2.22
2022-07-29T16:38:56.574Z,1.60
2022-07-29T16:41:23.023Z,1.70
2022-07-29T16:43:49.378Z,1.90
2022-07-29T16:46:18.939Z,1.73
2022-07-29T16:48:45.878Z,1.70
2022-07-29T16:51:14.371Z,1.60
2022-07-29T16:53:41.184Z,1.80
2022-07-29T16:56:07.517Z,1.60
2022-07-29T16:58:40.520Z,2.40
2022-07-29T17:01:09.841Z,2.03
2022-07-29T17:03:36.273Z,1.70
2022-07-29T17:06:02.610Z,1.70
2022-07-29T17:08:28.914Z,1.73
2022-07-29T17:10:55.252Z,1.77
2022-07-29T17:13:21.545Z,1.60
2022-07-29T17:15:48.063Z,1.52
2022-07-29T17:18:14.442Z,1.75
2022-07-29T17:20:41.302Z,1.70
2022-07-29T17:23:07.683Z,1.40
2022-07-29T17:25:34.256Z,1.90
2022-07-29T17:28:01.223Z,1.55
2022-07-29T17:30:27.945Z,2.00
2022-07-29T17:32:54.811Z,2.05
2022-07-29T17:35:39.831Z,1.80
2022-07-29T17:38:06.163Z,1.75
2022-07-29T17:40:32.530Z,1.60
2022-07-29T17:42:59.030Z,1.80
2022-07-29T17:45:25.462Z,1.70
2022-07-29T17:47:51.814Z,2.08
2022-07-29T17:50:22.899Z,2.03
2022-07-29T17:52:49.242Z,1.88
2022-07-29T17:55:15.583Z,2.10
2022-07-29T17:57:41.902Z,1.73
2022-07-29T18:00:08.559Z,2.00
2022-07-29T18:02:37.388Z,2.40
2022-07-29T18:05:04.514Z,1.80
2022-07-29T18:07:30.940Z,1.67
2022-07-29T18:10:00.408Z,1.90
2022-07-29T18:12:27.179Z,1.75
2022-07-29T18:14:53.561Z,2.05
2022-07-29T18:17:22.293Z,1.80
2022-07-29T18:20:09.347Z,1.73
2022-07-29T18:22:36.214Z,1.85
2022-07-29T18:25:02.584Z,1.80
2022-07-29T18:27:28.944Z,1.95
2022-07-29T18:29:55.311Z,2.00
2022-07-29T18:32:28.726Z,2.15
2022-07-29T18:35:02.445Z,1.92
2022-07-29T18:38:02.169Z,2.17
2022-07-29T18:40:20.868Z,2.10
2022-07-29T18:42:50.190Z,1.80
2022-07-29T18:45:19.548Z,1.92
2022-07-29T18:47:47.537Z,2.00
2022-07-29T18:50:14.568Z,1.90
2022-07-29T18:52:40.996Z,1.98
2022-07-29T18:55:07.718Z,1.98
2022-07-29T18:57:55.336Z,2.28
2022-07-29T19:00:23.849Z,1.98
2022-07-29T19:02:50.428Z,2.08
2022-07-29T19:05:16.813Z,2.10
2022-07-29T19:07:43.162Z,1.95
2022-07-29T19:10:09.855Z,1.90
2022-07-29T19:12:36.207Z,2.30
2022-07-29T19:15:03.191Z,2.35
2022-07-29T19:17:29.530Z,1.98
2022-07-29T19:19:55.853Z,2.00
2022-07-29T19:22:22.646Z,2.10
2022-07-29T19:24:49.515Z,2.40
2022-07-29T19:27:17.099Z,2.05
2022-07-29T19:29:43.787Z,2.55
2022-07-29T19:32:24.487Z,2.58
2022-07-29T19:35:10.703Z,2.00
2022-07-29T19:37:37.355Z,2.45
2022-07-29T19:40:04.122Z,2.40
2022-07-29T19:42:32.733Z,2.40
2022-07-29T19:45:02.077Z,2.42
2022-07-29T19:47:28.492Z,2.50
2022-07-29T19:49:57.357Z,2.40
2022-07-29T19:52:26.226Z,2.47
2022-07-29T19:54:52.961Z,2.25
2022-07-29T19:57:19.425Z,2.72
2022-07-29T19:59:45.755Z,2.80
2022-07-29T20:02:13.120Z,2.60
2022-07-29T20:04:39.692Z,3.17
2022-07-29T20:07:06.621Z,2.30
2022-07-29T20:09:33.088Z,2.70
2022-07-29T20:11:59.453Z,2.90
2022-07-29T20:14:25.803Z,2.67
2022-07-29T20:16:54.574Z,2.97
2022-07-29T20:19:21.242Z,2.88
2022-07-29T20:21:47.783Z,2.88
2022-07-29T20:24:14.127Z,2.75
2022-07-29T20:26:40.460Z,2.75
2022-07-29T20:29:06.812Z,2.65
2022-07-29T20:31:33.348Z,2.55
2022-07-29T20:34:00.513Z,2.47
2022-07-29T20:36:27.443Z,2.70
2022-07-29T20:38:57.291Z,2.40
2022-07-29T20:41:23.636Z,3.10
2022-07-29T20:46:16.275Z,2.83
2022-07-29T20:48:42.797Z,2.70
2022-07-29T20:51:09.353Z,2.83
2022-07-29T20:53:37.245Z,3.00
2022-07-29T20:56:03.695Z,3.30
2022-07-29T20:58:30.015Z,3.35
2022-07-29T21:03:22.727Z,2.92
2022-07-29T21:08:15.346Z,3.03
2022-07-29T21:10:44.376Z,3.10
2022-07-29T21:15:37.957Z,3.53
2022-07-29T21:18:16.217Z,3.60
2022-07-29T21:20:42.532Z,3.70
2022-07-29T21:23:09.421Z,3.78
2022-07-29T21:25:35.919Z,3.80
2022-07-29T21:28:20.707Z,3.53
2022-07-29T21:30:47.098Z,4.28
2022-07-29T21:33:13.469Z,3.45
2022-07-29T21:36:15.088Z,3.95
2022-07-29T21:38:26.357Z,4.60
2022-07-29T21:40:52.918Z,4.38
2022-07-29T21:43:22.488Z,3.88
2022-07-29T21:45:51.947Z,3.90
2022-07-29T21:48:19.442Z,4.10
2022-07-29T21:50:46.700Z,4.13
2022-07-29T21:53:15.735Z,4.13
2022-07-29T21:55:42.359Z,4.10
2022-07-29T22:00:35.079Z,3.60
2022-07-29T22:05:28.322Z,4.00
2022-07-29T22:07:56.855Z,3.83
2022-07-29T22:10:24.450Z,4.43
2022-07-29T22:12:51.894Z,4.03
2022-07-29T22:15:18.356Z,4.20
2022-07-29T22:17:44.690Z,4.00
2022-07-29T22:22:37.263Z,3.83
2022-07-29T22:27:29.946Z,4.30
2022-07-29T22:29:58.253Z,4.20
2022-07-29T22:34:50.887Z,3.78
2022-07-29T22:39:43.624Z,4.68
2022-07-29T22:44:36.403Z,4.35
2022-07-29T22:49:29.563Z,4.25
2022-07-29T22:51:55.919Z,4.03
2022-07-29T22:56:48.514Z,4.35
2022-07-29T23:01:41.175Z,3.90
2022-07-29T23:06:33.932Z,4.00
2022-07-29T23:11:26.901Z,4.07
2022-07-29T23:13:53.239Z,4.38
2022-07-29T23:18:53.238Z,4.63
2022-07-29T23:23:48.343Z,4.55
2022-07-29T23:26:16.729Z,4.65
2022-07-29T23:28:43.950Z,4.40
2022-07-29T23:31:10.714Z,4.88
2022-07-29T23:33:37.087Z,4.22
2022-07-29T23:36:03.509Z,4.50
2022-07-29T23:40:56.099Z,4.18
2022-07-29T23:43:22.432Z,4.30
2022-07-29T23:45:49.017Z,4.30
2022-07-29T23:48:15.499Z,4.20
2022-07-29T23:53:08.167Z,3.92
2022-07-29T23:58:04.695Z,4.15
